sensor_id;sensor_type;location;lat;lon;timestamp;P1;durP1;ratioP1;P2;durP2;ratioP2
70667;SDS011;58242;51.250;-1.118;2023-02-14T00:02:02;13.52;;;10.27;;
70667;SDS011;58242;51.250;-1.118;2023-02-14T00:04:28;13.63;;;10.23;;
70667;SDS011;58242;51.250;-1.118;2023-02-14T00:06:53;13.15;;;8.57;;
70667;SDS011;58242;51.250;-1.118;2023-02-14T00:09:19;12.13;;;9.27;;
70667;SDS011;58242;51.250;-1.118;2023-02-14T00:11:44;12.10;;;8.85;;
70667;SDS011;58242;51.250;-1.118;2023-02-14T00:14:10;11.73;;;8.13;;
70667;SDS011;58242;51.250;-1.118;2023-02-14T00:16:54;10.88;;;7.85;;
70667;SDS011;58242;51.250;-1.118;2023-02-14T00:19:20;10.73;;;8.75;;
70667;SDS011;58242;51.250;-1.118;2023-02-14T00:21:46;11.77;;;8.30;;
70667;SDS011;58242;51.250;-1.118;2023-02-14T00:24:14;8.98;;;7.63;;
70667;SDS011;58242;51.250;-1.118;2023-02-14T00:26:41;11.95;;;8.13;;
70667;SDS011;58242;51.250;-1.118;2023-02-14T00:29:08;10.15;;;7.68;;
70667;SDS011;58242;51.250;-1.118;2023-02-14T00:31:36;10.57;;;8.13;;
70667;SDS011;58242;51.250;-1.118;2023-02-14T00:34:03;9.65;;;7.50;;
70667;SDS011;58242;51.250;-1.118;2023-02-14T00:36:30;11.57;;;9.15;;
70667;SDS011;58242;51.250;-1.118;2023-02-14T00:38:55;9.98;;;8.50;;
70667;SDS011;58242;51.250;-1.118;2023-02-14T00:41:20;11.70;;;9.23;;
70667;SDS011;58242;51.250;-1.118;2023-02-14T00:43:50;11.60;;;8.75;;
70667;SDS011;58242;51.250;-1.118;2023-02-14T00:46:16;12.40;;;9.05;;
70667;SDS011;58242;51.250;-1.118;2023-02-14T00:48:43;10.75;;;8.23;;
70667;SDS011;58242;51.250;-1.118;2023-02-14T00:51:08;11.25;;;9.02;;
70667;SDS011;58242;51.250;-1.118;2023-02-14T00:53:34;9.75;;;8.32;;
70667;SDS011;58242;51.250;-1.118;2023-02-14T00:56:00;11.02;;;8.05;;
70667;SDS011;58242;51.250;-1.118;2023-02-14T00:58:26;10.57;;;7.93;;
70667;SDS011;58242;51.250;-1.118;2023-02-14T01:00:51;9.40;;;8.40;;
70667;SDS011;58242;51.250;-1.118;2023-02-14T01:03:17;9.55;;;8.43;;
70667;SDS011;58242;51.250;-1.118;2023-02-14T01:05:42;9.95;;;8.23;;
70667;SDS011;58242;51.250;-1.118;2023-02-14T01:08:07;11.73;;;8.63;;
70667;SDS011;58242;51.250;-1.118;2023-02-14T01:10:34;11.98;;;9.07;;
70667;SDS011;58242;51.250;-1.118;2023-02-14T01:13:00;13.10;;;8.88;;
70667;SDS011;58242;51.250;-1.118;2023-02-14T01:15:25;12.35;;;9.68;;
70667;SDS011;58242;51.250;-1.118;2023-02-14T01:17:51;10.40;;;8.00;;
70667;SDS011;58242;51.250;-1.118;2023-02-14T01:20:16;12.27;;;10.32;;
70667;SDS011;58242;51.250;-1.118;2023-02-14T01:22:41;10.98;;;9.38;;
70667;SDS011;58242;51.250;-1.118;2023-02-14T01:25:07;9.63;;;8.23;;
70667;SDS011;58242;51.250;-1.118;2023-02-14T01:27:32;8.73;;;7.82;;
70667;SDS011;58242;51.250;-1.118;2023-02-14T01:29:57;8.80;;;7.40;;
70667;SDS011;58242;51.250;-1.118;2023-02-14T01:32:23;7.50;;;6.50;;
70667;SDS011;58242;51.250;-1.118;2023-02-14T01:34:48;7.30;;;6.60;;
70667;SDS011;58242;51.250;-1.118;2023-02-14T01:37:13;7.90;;;7.10;;
70667;SDS011;58242;51.250;-1.118;2023-02-14T01:39:39;7.70;;;6.95;;
70667;SDS011;58242;51.250;-1.118;2023-02-14T01:42:04;7.88;;;7.07;;
70667;SDS011;58242;51.250;-1.118;2023-02-14T01:46:55;7.85;;;7.05;;
70667;SDS011;58242;51.250;-1.118;2023-02-14T01:49:26;6.97;;;6.28;;
70667;SDS011;58242;51.250;-1.118;2023-02-14T01:51:56;7.50;;;6.32;;
70667;SDS011;58242;51.250;-1.118;2023-02-14T01:54:23;7.60;;;6.87;;
70667;SDS011;58242;51.250;-1.118;2023-02-14T01:56:53;6.97;;;6.28;;
70667;SDS011;58242;51.250;-1.118;2023-02-14T01:59:23;7.35;;;6.35;;
70667;SDS011;58242;51.250;-1.118;2023-02-14T02:01:50;7.50;;;6.78;;
70667;SDS011;58242;51.250;-1.118;2023-02-14T02:04:18;7.85;;;7.05;;
70667;SDS011;58242;51.250;-1.118;2023-02-14T02:06:50;7.85;;;7.07;;
70667;SDS011;58242;51.250;-1.118;2023-02-14T02:09:20;7.65;;;6.85;;
70667;SDS011;58242;51.250;-1.118;2023-02-14T02:11:50;7.00;;;6.32;;
70667;SDS011;58242;51.250;-1.118;2023-02-14T02:14:16;6.32;;;5.78;;
70667;SDS011;58242;51.250;-1.118;2023-02-14T02:17:30;7.82;;;7.03;;
70667;SDS011;58242;51.250;-1.118;2023-02-14T02:19:55;7.10;;;6.30;;
70667;SDS011;58242;51.250;-1.118;2023-02-14T02:38:58;6.35;;;5.78;;
70667;SDS011;58242;51.250;-1.118;2023-02-14T02:41:39;6.43;;;5.82;;
70667;SDS011;58242;51.250;-1.118;2023-02-14T02:44:24;6.63;;;6.03;;
70667;SDS011;58242;51.250;-1.118;2023-02-14T02:47:10;5.97;;;5.43;;
70667;SDS011;58242;51.250;-1.118;2023-02-14T02:50:04;7.10;;;6.40;;
70667;SDS011;58242;51.250;-1.118;2023-02-14T03:01:20;6.43;;;5.82;;
70667;SDS011;58242;51.250;-1.118;2023-02-14T03:03:56;6.07;;;5.47;;
70667;SDS011;58242;51.250;-1.118;2023-02-14T03:06:43;6.70;;;6.07;;
70667;SDS011;58242;51.250;-1.118;2023-02-14T03:09:47;7.47;;;6.78;;
70667;SDS011;58242;51.250;-1.118;2023-02-14T03:12:06;6.38;;;5.78;;
70667;SDS011;58242;51.250;-1.118;2023-02-14T03:17:29;6.43;;;5.82;;
70667;SDS011;58242;51.250;-1.118;2023-02-14T03:20:14;6.53;;;5.93;;
70667;SDS011;58242;51.250;-1.118;2023-02-14T03:22:51;7.43;;;6.72;;
70667;SDS011;58242;51.250;-1.118;2023-02-14T03:31:19;6.50;;;5.82;;
70667;SDS011;58242;51.250;-1.118;2023-02-14T03:36:30;5.53;;;5.03;;
70667;SDS011;58242;51.250;-1.118;2023-02-14T03:39:14;6.25;;;5.65;;
70667;SDS011;58242;51.250;-1.118;2023-02-14T03:41:49;6.47;;;5.88;;
70667;SDS011;58242;51.250;-1.118;2023-02-14T03:44:21;5.90;;;5.40;;
70667;SDS011;58242;51.250;-1.118;2023-02-14T03:46:52;5.70;;;5.20;;
70667;SDS011;58242;51.250;-1.118;2023-02-14T03:49:22;6.57;;;5.97;;
70667;SDS011;58242;51.250;-1.118;2023-02-14T03:51:53;6.63;;;5.97;;
70667;SDS011;58242;51.250;-1.118;2023-02-14T03:54:20;6.68;;;6.07;;
70667;SDS011;58242;51.250;-1.118;2023-02-14T03:56:52;6.32;;;5.72;;
70667;SDS011;58242;51.250;-1.118;2023-02-14T03:59:24;6.20;;;5.70;;
70667;SDS011;58242;51.250;-1.118;2023-02-14T04:02:11;6.70;;;6.10;;
70667;SDS011;58242;51.250;-1.118;2023-02-14T04:04:57;5.95;;;5.35;;
70667;SDS011;58242;51.250;-1.118;2023-02-14T04:07:25;5.80;;;5.30;;
70667;SDS011;58242;51.250;-1.118;2023-02-14T04:09:50;5.50;;;5.00;;
70667;SDS011;58242;51.250;-1.118;2023-02-14T04:12:16;6.43;;;5.93;;
70667;SDS011;58242;51.250;-1.118;2023-02-14T04:14:42;6.57;;;6.00;;
70667;SDS011;58242;51.250;-1.118;2023-02-14T04:17:08;6.55;;;5.95;;
70667;SDS011;58242;51.250;-1.118;2023-02-14T04:19:51;5.72;;;5.22;;
70667;SDS011;58242;51.250;-1.118;2023-02-14T04:22:17;7.13;;;6.43;;
70667;SDS011;58242;51.250;-1.118;2023-02-14T04:24:43;7.10;;;6.50;;
70667;SDS011;58242;51.250;-1.118;2023-02-14T04:27:08;7.45;;;6.57;;
70667;SDS011;58242;51.250;-1.118;2023-02-14T04:29:46;7.00;;;6.40;;
70667;SDS011;58242;51.250;-1.118;2023-02-14T04:32:14;6.65;;;6.05;;
70667;SDS011;58242;51.250;-1.118;2023-02-14T04:34:41;7.55;;;6.85;;
70667;SDS011;58242;51.250;-1.118;2023-02-14T04:37:07;7.00;;;6.40;;
70667;SDS011;58242;51.250;-1.118;2023-02-14T04:39:33;6.15;;;5.65;;
70667;SDS011;58242;51.250;-1.118;2023-02-14T04:41:59;5.78;;;5.28;;
70667;SDS011;58242;51.250;-1.118;2023-02-14T04:44:24;6.72;;;6.20;;
70667;SDS011;58242;51.250;-1.118;2023-02-14T04:46:50;6.68;;;6.07;;
70667;SDS011;58242;51.250;-1.118;2023-02-14T04:49:15;6.97;;;6.38;;
70667;SDS011;58242;51.250;-1.118;2023-02-14T04:51:41;6.90;;;6.40;;
70667;SDS011;58242;51.250;-1.118;2023-02-14T04:54:07;7.07;;;6.47;;
70667;SDS011;58242;51.250;-1.118;2023-02-14T04:56:32;6.68;;;6.07;;
70667;SDS011;58242;51.250;-1.118;2023-02-14T04:58:57;5.85;;;5.40;;
70667;SDS011;58242;51.250;-1.118;2023-02-14T05:01:23;5.80;;;5.30;;
70667;SDS011;58242;51.250;-1.118;2023-02-14T05:03:48;5.50;;;5.10;;
70667;SDS011;58242;51.250;-1.118;2023-02-14T05:06:14;6.78;;;6.18;;
70667;SDS011;58242;51.250;-1.118;2023-02-14T05:08:39;5.88;;;5.38;;
70667;SDS011;58242;51.250;-1.118;2023-02-14T05:11:04;6.63;;;6.03;;
70667;SDS011;58242;51.250;-1.118;2023-02-14T05:13:30;6.07;;;5.65;;
70667;SDS011;58242;51.250;-1.118;2023-02-14T05:15:56;5.63;;;5.13;;
70667;SDS011;58242;51.250;-1.118;2023-02-14T05:18:21;6.05;;;5.53;;
70667;SDS011;58242;51.250;-1.118;2023-02-14T05:20:52;6.50;;;5.82;;
70667;SDS011;58242;51.250;-1.118;2023-02-14T05:23:19;6.40;;;5.78;;
70667;SDS011;58242;51.250;-1.118;2023-02-14T05:25:48;5.78;;;5.30;;
70667;SDS011;58242;51.250;-1.118;2023-02-14T05:28:15;6.20;;;5.65;;
70667;SDS011;58242;51.250;-1.118;2023-02-14T05:30:41;6.95;;;6.25;;
70667;SDS011;58242;51.250;-1.118;2023-02-14T05:33:06;5.97;;;5.47;;
70667;SDS011;58242;51.250;-1.118;2023-02-14T05:35:32;6.13;;;5.55;;
70667;SDS011;58242;51.250;-1.118;2023-02-14T05:37:57;5.93;;;5.43;;
70667;SDS011;58242;51.250;-1.118;2023-02-14T05:40:23;5.30;;;4.82;;
70667;SDS011;58242;51.250;-1.118;2023-02-14T05:42:50;5.63;;;5.15;;
70667;SDS011;58242;51.250;-1.118;2023-02-14T05:45:16;5.60;;;5.15;;
70667;SDS011;58242;51.250;-1.118;2023-02-14T05:47:41;5.60;;;5.13;;
70667;SDS011;58242;51.250;-1.118;2023-02-14T05:50:07;5.97;;;5.47;;
70667;SDS011;58242;51.250;-1.118;2023-02-14T05:52:32;6.35;;;5.85;;
70667;SDS011;58242;51.250;-1.118;2023-02-14T05:54:58;7.22;;;6.53;;
70667;SDS011;58242;51.250;-1.118;2023-02-14T05:57:23;6.18;;;5.68;;
70667;SDS011;58242;51.250;-1.118;2023-02-14T05:59:49;6.85;;;6.18;;
70667;SDS011;58242;51.250;-1.118;2023-02-14T06:02:14;6.47;;;5.88;;
70667;SDS011;58242;51.250;-1.118;2023-02-14T06:04:40;7.25;;;6.55;;
70667;SDS011;58242;51.250;-1.118;2023-02-14T06:07:05;7.30;;;6.60;;
70667;SDS011;58242;51.250;-1.118;2023-02-14T06:09:31;7.43;;;6.72;;
70667;SDS011;58242;51.250;-1.118;2023-02-14T06:11:56;7.22;;;5.97;;
70667;SDS011;58242;51.250;-1.118;2023-02-14T06:14:22;7.28;;;6.57;;
70667;SDS011;58242;51.250;-1.118;2023-02-14T06:16:48;7.45;;;6.78;;
70667;SDS011;58242;51.250;-1.118;2023-02-14T06:19:13;6.65;;;6.05;;
70667;SDS011;58242;51.250;-1.118;2023-02-14T06:21:38;7.28;;;6.68;;
70667;SDS011;58242;51.250;-1.118;2023-02-14T06:24:04;6.82;;;6.22;;
70667;SDS011;58242;51.250;-1.118;2023-02-14T06:26:29;8.55;;;7.53;;
70667;SDS011;58242;51.250;-1.118;2023-02-14T06:28:56;8.73;;;6.30;;
70667;SDS011;58242;51.250;-1.118;2023-02-14T06:31:22;8.40;;;6.68;;
70667;SDS011;58242;51.250;-1.118;2023-02-14T06:33:48;7.20;;;6.57;;
70667;SDS011;58242;51.250;-1.118;2023-02-14T06:36:14;7.22;;;6.50;;
70667;SDS011;58242;51.250;-1.118;2023-02-14T06:38:39;6.05;;;5.55;;
70667;SDS011;58242;51.250;-1.118;2023-02-14T06:41:05;5.82;;;5.28;;
70667;SDS011;58242;51.250;-1.118;2023-02-14T06:43:32;6.55;;;5.95;;
70667;SDS011;58242;51.250;-1.118;2023-02-14T06:45:58;6.68;;;6.18;;
70667;SDS011;58242;51.250;-1.118;2023-02-14T06:48:24;6.75;;;6.20;;
70667;SDS011;58242;51.250;-1.118;2023-02-14T06:50:49;6.07;;;5.57;;
70667;SDS011;58242;51.250;-1.118;2023-02-14T06:53:16;7.13;;;6.43;;
70667;SDS011;58242;51.250;-1.118;2023-02-14T06:55:42;7.57;;;6.82;;
70667;SDS011;58242;51.250;-1.118;2023-02-14T06:58:07;6.75;;;6.15;;
70667;SDS011;58242;51.250;-1.118;2023-02-14T07:00:32;7.72;;;6.93;;
70667;SDS011;58242;51.250;-1.118;2023-02-14T07:02:58;6.75;;;6.15;;
70667;SDS011;58242;51.250;-1.118;2023-02-14T07:05:23;7.22;;;6.57;;
70667;SDS011;58242;51.250;-1.118;2023-02-14T07:07:48;6.80;;;6.13;;
70667;SDS011;58242;51.250;-1.118;2023-02-14T07:10:14;6.55;;;5.95;;
70667;SDS011;58242;51.250;-1.118;2023-02-14T07:12:39;6.78;;;6.18;;
70667;SDS011;58242;51.250;-1.118;2023-02-14T07:15:08;7.10;;;6.32;;
70667;SDS011;58242;51.250;-1.118;2023-02-14T07:17:35;6.63;;;5.80;;
70667;SDS011;58242;51.250;-1.118;2023-02-14T07:20:00;8.00;;;6.80;;
70667;SDS011;58242;51.250;-1.118;2023-02-14T07:22:26;7.78;;;6.68;;
70667;SDS011;58242;51.250;-1.118;2023-02-14T07:24:51;7.18;;;6.35;;
70667;SDS011;58242;51.250;-1.118;2023-02-14T07:27:17;7.03;;;6.28;;
70667;SDS011;58242;51.250;-1.118;2023-02-14T07:29:42;7.07;;;6.25;;
70667;SDS011;58242;51.250;-1.118;2023-02-14T07:32:07;8.02;;;6.53;;
70667;SDS011;58242;51.250;-1.118;2023-02-14T07:34:33;8.65;;;6.78;;
70667;SDS011;58242;51.250;-1.118;2023-02-14T07:36:59;7.53;;;6.82;;
70667;SDS011;58242;51.250;-1.118;2023-02-14T07:39:25;7.45;;;6.70;;
70667;SDS011;58242;51.250;-1.118;2023-02-14T07:41:50;8.40;;;7.60;;
70667;SDS011;58242;51.250;-1.118;2023-02-14T07:44:16;8.45;;;7.70;;
70667;SDS011;58242;51.250;-1.118;2023-02-14T07:46:41;8.95;;;7.30;;
70667;SDS011;58242;51.250;-1.118;2023-02-14T07:49:06;8.68;;;7.78;;
70667;SDS011;58242;51.250;-1.118;2023-02-14T07:51:32;9.10;;;7.25;;
70667;SDS011;58242;51.250;-1.118;2023-02-14T07:53:57;7.80;;;6.97;;
70667;SDS011;58242;51.250;-1.118;2023-02-14T07:56:22;8.85;;;7.68;;
70667;SDS011;58242;51.250;-1.118;2023-02-14T07:58:48;9.50;;;8.32;;
70667;SDS011;58242;51.250;-1.118;2023-02-14T08:01:14;8.25;;;7.45;;
70667;SDS011;58242;51.250;-1.118;2023-02-14T08:03:39;7.57;;;6.68;;
70667;SDS011;58242;51.250;-1.118;2023-02-14T08:06:05;7.63;;;6.72;;
70667;SDS011;58242;51.250;-1.118;2023-02-14T08:08:30;8.80;;;7.53;;
70667;SDS011;58242;51.250;-1.118;2023-02-14T08:10:56;7.90;;;7.03;;
70667;SDS011;58242;51.250;-1.118;2023-02-14T08:13:22;8.15;;;6.90;;
70667;SDS011;58242;51.250;-1.118;2023-02-14T08:15:48;7.05;;;6.35;;
70667;SDS011;58242;51.250;-1.118;2023-02-14T08:18:28;7.93;;;7.13;;
70667;SDS011;58242;51.250;-1.118;2023-02-14T08:20:55;7.50;;;6.72;;
70667;SDS011;58242;51.250;-1.118;2023-02-14T08:23:20;8.85;;;6.85;;
70667;SDS011;58242;51.250;-1.118;2023-02-14T08:25:50;9.02;;;7.13;;
70667;SDS011;58242;51.250;-1.118;2023-02-14T08:28:16;10.10;;;7.05;;
70667;SDS011;58242;51.250;-1.118;2023-02-14T08:30:42;7.13;;;6.35;;
70667;SDS011;58242;51.250;-1.118;2023-02-14T08:33:08;7.80;;;7.05;;
70667;SDS011;58242;51.250;-1.118;2023-02-14T08:35:34;8.23;;;7.10;;
70667;SDS011;58242;51.250;-1.118;2023-02-14T08:38:00;8.48;;;7.50;;
70667;SDS011;58242;51.250;-1.118;2023-02-14T08:40:26;9.35;;;7.40;;
70667;SDS011;58242;51.250;-1.118;2023-02-14T08:42:51;8.48;;;7.30;;
70667;SDS011;58242;51.250;-1.118;2023-02-14T08:45:17;7.05;;;6.30;;
70667;SDS011;58242;51.250;-1.118;2023-02-14T08:47:42;7.82;;;6.80;;
70667;SDS011;58242;51.250;-1.118;2023-02-14T08:50:09;8.85;;;7.07;;
70667;SDS011;58242;51.250;-1.118;2023-02-14T08:52:37;9.07;;;7.65;;
70667;SDS011;58242;51.250;-1.118;2023-02-14T08:55:03;8.05;;;7.25;;
70667;SDS011;58242;51.250;-1.118;2023-02-14T08:57:29;8.27;;;7.43;;
70667;SDS011;58242;51.250;-1.118;2023-02-14T08:59:54;9.13;;;8.23;;
70667;SDS011;58242;51.250;-1.118;2023-02-14T09:02:20;10.23;;;8.27;;
70667;SDS011;58242;51.250;-1.118;2023-02-14T09:04:45;9.75;;;8.27;;
70667;SDS011;58242;51.250;-1.118;2023-02-14T09:07:11;10.35;;;8.05;;
70667;SDS011;58242;51.250;-1.118;2023-02-14T09:09:36;10.43;;;8.00;;
70667;SDS011;58242;51.250;-1.118;2023-02-14T09:12:03;11.00;;;8.43;;
70667;SDS011;58242;51.250;-1.118;2023-02-14T09:14:29;10.88;;;8.38;;
70667;SDS011;58242;51.250;-1.118;2023-02-14T09:16:54;12.85;;;9.55;;
70667;SDS011;58242;51.250;-1.118;2023-02-14T09:19:20;11.82;;;9.73;;
70667;SDS011;58242;51.250;-1.118;2023-02-14T09:21:45;13.38;;;10.30;;
70667;SDS011;58242;51.250;-1.118;2023-02-14T09:24:10;10.57;;;8.80;;
70667;SDS011;58242;51.250;-1.118;2023-02-14T09:26:36;16.52;;;10.93;;
70667;SDS011;58242;51.250;-1.118;2023-02-14T09:29:04;11.98;;;9.18;;
70667;SDS011;58242;51.250;-1.118;2023-02-14T09:31:30;13.05;;;9.05;;
70667;SDS011;58242;51.250;-1.118;2023-02-14T09:33:55;15.60;;;11.43;;
70667;SDS011;58242;51.250;-1.118;2023-02-14T09:36:20;13.40;;;11.07;;
70667;SDS011;58242;51.250;-1.118;2023-02-14T09:38:46;12.32;;;10.20;;
70667;SDS011;58242;51.250;-1.118;2023-02-14T09:44:01;9.25;;;7.75;;
70667;SDS011;58242;51.250;-1.118;2023-02-14T09:46:33;9.68;;;8.30;;
70667;SDS011;58242;51.250;-1.118;2023-02-14T09:49:03;11.90;;;9.25;;
70667;SDS011;58242;51.250;-1.118;2023-02-14T09:51:32;10.55;;;8.35;;
70667;SDS011;58242;51.250;-1.118;2023-02-14T09:54:03;9.38;;;7.85;;
70667;SDS011;58242;51.250;-1.118;2023-02-14T10:01:55;10.50;;;8.15;;
70667;SDS011;58242;51.250;-1.118;2023-02-14T10:04:39;11.43;;;8.32;;
70667;SDS011;58242;51.250;-1.118;2023-02-14T10:07:26;8.40;;;7.60;;
70667;SDS011;58242;51.250;-1.118;2023-02-14T10:10:02;9.20;;;7.95;;
70667;SDS011;58242;51.250;-1.118;2023-02-14T10:13:00;11.20;;;8.63;;
70667;SDS011;58242;51.250;-1.118;2023-02-14T10:18:04;8.68;;;7.78;;
70667;SDS011;58242;51.250;-1.118;2023-02-14T10:21:20;8.93;;;7.72;;
70667;SDS011;58242;51.250;-1.118;2023-02-14T10:23:31;9.50;;;7.65;;
70667;SDS011;58242;51.250;-1.118;2023-02-14T10:26:03;8.43;;;7.55;;
70667;SDS011;58242;51.250;-1.118;2023-02-14T10:28:31;8.95;;;7.03;;
70667;SDS011;58242;51.250;-1.118;2023-02-14T10:31:04;7.60;;;6.80;;
70667;SDS011;58242;51.250;-1.118;2023-02-14T10:33:42;11.00;;;8.32;;
70667;SDS011;58242;51.250;-1.118;2023-02-14T10:36:15;10.45;;;8.10;;
70667;SDS011;58242;51.250;-1.118;2023-02-14T10:41:34;10.13;;;8.57;;
70667;SDS011;58242;51.250;-1.118;2023-02-14T10:46:55;13.32;;;9.43;;
70667;SDS011;58242;51.250;-1.118;2023-02-14T10:52:00;10.73;;;8.20;;
70667;SDS011;58242;51.250;-1.118;2023-02-14T10:54:35;9.68;;;8.40;;
70667;SDS011;58242;51.250;-1.118;2023-02-14T10:57:21;11.73;;;9.07;;
70667;SDS011;58242;51.250;-1.118;2023-02-14T10:59:55;9.75;;;8.13;;
70667;SDS011;58242;51.250;-1.118;2023-02-14T11:02:26;8.80;;;7.68;;
70667;SDS011;58242;51.250;-1.118;2023-02-14T11:04:56;10.27;;;6.85;;
70667;SDS011;58242;51.250;-1.118;2023-02-14T11:07:23;12.93;;;8.77;;
70667;SDS011;58242;51.250;-1.118;2023-02-14T11:09:49;10.15;;;8.00;;
70667;SDS011;58242;51.250;-1.118;2023-02-14T11:12:30;9.82;;;7.80;;
70667;SDS011;58242;51.250;-1.118;2023-02-14T11:17:46;10.07;;;7.60;;
70667;SDS011;58242;51.250;-1.118;2023-02-14T11:22:43;8.23;;;7.10;;
70667;SDS011;58242;51.250;-1.118;2023-02-14T11:25:20;9.82;;;7.03;;
70667;SDS011;58242;51.250;-1.118;2023-02-14T11:27:48;9.98;;;7.57;;
70667;SDS011;58242;51.250;-1.118;2023-02-14T11:30:35;8.38;;;6.97;;
70667;SDS011;58242;51.250;-1.118;2023-02-14T11:33:04;7.32;;;6.60;;
70667;SDS011;58242;51.250;-1.118;2023-02-14T11:35:31;11.93;;;8.25;;
70667;SDS011;58242;51.250;-1.118;2023-02-14T11:38:02;11.50;;;8.77;;
70667;SDS011;58242;51.250;-1.118;2023-02-14T11:40:30;8.88;;;7.93;;
70667;SDS011;58242;51.250;-1.118;2023-02-14T11:42:58;9.88;;;8.80;;
70667;SDS011;58242;51.250;-1.118;2023-02-14T11:45:43;12.38;;;10.10;;
70667;SDS011;58242;51.250;-1.118;2023-02-14T11:48:20;10.95;;;8.85;;
70667;SDS011;58242;51.250;-1.118;2023-02-14T11:53:36;9.85;;;8.77;;
70667;SDS011;58242;51.250;-1.118;2023-02-14T11:56:07;11.20;;;9.77;;
70667;SDS011;58242;51.250;-1.118;2023-02-14T11:58:34;10.48;;;9.27;;
70667;SDS011;58242;51.250;-1.118;2023-02-14T12:00:59;13.15;;;9.95;;
70667;SDS011;58242;51.250;-1.118;2023-02-14T12:03:26;10.65;;;9.27;;
70667;SDS011;58242;51.250;-1.118;2023-02-14T12:05:53;12.38;;;9.52;;
70667;SDS011;58242;51.250;-1.118;2023-02-14T12:08:25;13.00;;;10.32;;
70667;SDS011;58242;51.250;-1.118;2023-02-14T12:11:17;12.07;;;8.27;;
70667;SDS011;58242;51.250;-1.118;2023-02-14T12:14:08;10.20;;;9.18;;
70667;SDS011;58242;51.250;-1.118;2023-02-14T12:16:46;10.27;;;8.80;;
70667;SDS011;58242;51.250;-1.118;2023-02-14T12:19:17;10.10;;;8.73;;
70667;SDS011;58242;51.250;-1.118;2023-02-14T12:24:37;9.20;;;8.30;;
70667;SDS011;58242;51.250;-1.118;2023-02-14T12:27:17;10.45;;;9.45;;
70667;SDS011;58242;51.250;-1.118;2023-02-14T12:32:23;9.00;;;8.13;;
70667;SDS011;58242;51.250;-1.118;2023-02-14T12:37:23;8.90;;;8.00;;
70667;SDS011;58242;51.250;-1.118;2023-02-14T12:40:11;7.20;;;6.60;;
70667;SDS011;58242;51.250;-1.118;2023-02-14T12:42:56;7.38;;;6.78;;
70667;SDS011;58242;51.250;-1.118;2023-02-14T12:45:43;7.05;;;6.45;;
70667;SDS011;58242;51.250;-1.118;2023-02-14T12:53:51;6.53;;;5.90;;
70667;SDS011;58242;51.250;-1.118;2023-02-14T13:10:55;8.15;;;7.35;;
70667;SDS011;58242;51.250;-1.118;2023-02-14T13:16:33;9.27;;;8.38;;
70667;SDS011;58242;51.250;-1.118;2023-02-14T13:19:21;7.53;;;6.90;;
70667;SDS011;58242;51.250;-1.118;2023-02-14T13:22:12;5.90;;;5.40;;
70667;SDS011;58242;51.250;-1.118;2023-02-14T13:24:42;6.43;;;5.88;;
70667;SDS011;58242;51.250;-1.118;2023-02-14T13:30:18;5.50;;;5.00;;
70667;SDS011;58242;51.250;-1.118;2023-02-14T13:32:48;7.50;;;6.80;;
70667;SDS011;58242;51.250;-1.118;2023-02-14T13:35:16;6.00;;;5.50;;
70667;SDS011;58242;51.250;-1.118;2023-02-14T13:37:44;6.65;;;6.05;;
70667;SDS011;58242;51.250;-1.118;2023-02-14T13:40:18;5.93;;;5.43;;
70667;SDS011;58242;51.250;-1.118;2023-02-14T13:48:12;5.80;;;5.30;;
70667;SDS011;58242;51.250;-1.118;2023-02-14T13:53:27;5.40;;;5.00;;
70667;SDS011;58242;51.250;-1.118;2023-02-14T13:58:44;4.90;;;4.60;;
70667;SDS011;58242;51.250;-1.118;2023-02-14T14:09:50;4.95;;;4.57;;
70667;SDS011;58242;51.250;-1.118;2023-02-14T14:17:36;3.63;;;3.33;;
70667;SDS011;58242;51.250;-1.118;2023-02-14T14:20:28;2.90;;;2.70;;
70667;SDS011;58242;51.250;-1.118;2023-02-14T14:22:55;3.50;;;3.13;;
70667;SDS011;58242;51.250;-1.118;2023-02-14T14:25:37;3.60;;;3.40;;
70667;SDS011;58242;51.250;-1.118;2023-02-14T14:28:18;3.08;;;2.80;;
70667;SDS011;58242;51.250;-1.118;2023-02-14T14:30:46;3.00;;;2.80;;
70667;SDS011;58242;51.250;-1.118;2023-02-14T14:36:01;3.58;;;2.63;;
70667;SDS011;58242;51.250;-1.118;2023-02-14T14:38:29;2.80;;;2.60;;
70667;SDS011;58242;51.250;-1.118;2023-02-14T14:40:56;2.92;;;2.72;;
70667;SDS011;58242;51.250;-1.118;2023-02-14T14:43:26;3.10;;;2.80;;
70667;SDS011;58242;51.250;-1.118;2023-02-14T14:45:55;2.65;;;2.55;;
70667;SDS011;58242;51.250;-1.118;2023-02-14T14:48:33;2.70;;;2.60;;
70667;SDS011;58242;51.250;-1.118;2023-02-14T14:50:59;3.40;;;3.10;;
70667;SDS011;58242;51.250;-1.118;2023-02-14T14:56:18;3.03;;;2.70;;
70667;SDS011;58242;51.250;-1.118;2023-02-14T14:58:46;2.95;;;2.70;;
70667;SDS011;58242;51.250;-1.118;2023-02-14T15:01:25;3.22;;;3.03;;
70667;SDS011;58242;51.250;-1.118;2023-02-14T15:06:54;2.95;;;2.85;;
70667;SDS011;58242;51.250;-1.118;2023-02-14T15:09:22;3.40;;;3.22;;
70667;SDS011;58242;51.250;-1.118;2023-02-14T15:11:54;3.83;;;3.53;;
70667;SDS011;58242;51.250;-1.118;2023-02-14T15:14:40;3.42;;;3.22;;
70667;SDS011;58242;51.250;-1.118;2023-02-14T15:17:19;3.33;;;3.13;;
70667;SDS011;58242;51.250;-1.118;2023-02-14T15:19:49;3.40;;;3.20;;
70667;SDS011;58242;51.250;-1.118;2023-02-14T15:24:44;3.47;;;3.28;;
70667;SDS011;58242;51.250;-1.118;2023-02-14T15:27:12;4.25;;;3.95;;
70667;SDS011;58242;51.250;-1.118;2023-02-14T15:29:40;4.43;;;4.13;;
70667;SDS011;58242;51.250;-1.118;2023-02-14T15:32:07;4.90;;;4.45;;
70667;SDS011;58242;51.250;-1.118;2023-02-14T15:34:34;4.43;;;4.05;;
70667;SDS011;58242;51.250;-1.118;2023-02-14T15:37:00;4.15;;;3.85;;
70667;SDS011;58242;51.250;-1.118;2023-02-14T15:39:43;4.13;;;3.83;;
70667;SDS011;58242;51.250;-1.118;2023-02-14T15:42:19;4.88;;;4.47;;
70667;SDS011;58242;51.250;-1.118;2023-02-14T15:45:13;5.43;;;4.10;;
70667;SDS011;58242;51.250;-1.118;2023-02-14T15:47:40;4.03;;;3.33;;
70667;SDS011;58242;51.250;-1.118;2023-02-14T15:50:14;3.78;;;3.47;;
70667;SDS011;58242;51.250;-1.118;2023-02-14T15:52:40;4.63;;;4.32;;
70667;SDS011;58242;51.250;-1.118;2023-02-14T15:55:06;4.93;;;4.15;;
70667;SDS011;58242;51.250;-1.118;2023-02-14T15:57:33;4.60;;;4.20;;
70667;SDS011;58242;51.250;-1.118;2023-02-14T15:59:59;4.18;;;3.88;;
70667;SDS011;58242;51.250;-1.118;2023-02-14T16:02:28;4.13;;;3.70;;
70667;SDS011;58242;51.250;-1.118;2023-02-14T16:05:03;5.05;;;4.55;;
70667;SDS011;58242;51.250;-1.118;2023-02-14T16:07:39;4.90;;;4.50;;
70667;SDS011;58242;51.250;-1.118;2023-02-14T16:12:55;4.18;;;3.80;;
70667;SDS011;58242;51.250;-1.118;2023-02-14T16:15:35;4.80;;;4.35;;
70667;SDS011;58242;51.250;-1.118;2023-02-14T16:18:02;5.28;;;4.88;;
70667;SDS011;58242;51.250;-1.118;2023-02-14T16:23:16;5.07;;;4.60;;
70667;SDS011;58242;51.250;-1.118;2023-02-14T16:25:47;5.80;;;5.28;;
70667;SDS011;58242;51.250;-1.118;2023-02-14T16:28:13;6.22;;;5.63;;
70667;SDS011;58242;51.250;-1.118;2023-02-14T16:30:39;6.18;;;5.25;;
70667;SDS011;58242;51.250;-1.118;2023-02-14T16:33:09;6.70;;;6.00;;
70667;SDS011;58242;51.250;-1.118;2023-02-14T16:35:38;7.03;;;5.50;;
70667;SDS011;58242;51.250;-1.118;2023-02-14T16:38:04;5.93;;;5.43;;
70667;SDS011;58242;51.250;-1.118;2023-02-14T16:40:29;6.50;;;5.90;;
70667;SDS011;58242;51.250;-1.118;2023-02-14T16:42:55;8.35;;;6.70;;
70667;SDS011;58242;51.250;-1.118;2023-02-14T16:45:20;6.65;;;5.20;;
70667;SDS011;58242;51.250;-1.118;2023-02-14T16:47:46;6.47;;;5.90;;
70667;SDS011;58242;51.250;-1.118;2023-02-14T16:50:12;6.90;;;6.15;;
70667;SDS011;58242;51.250;-1.118;2023-02-14T16:52:38;6.63;;;6.03;;
70667;SDS011;58242;51.250;-1.118;2023-02-14T16:55:04;6.22;;;5.72;;
70667;SDS011;58242;51.250;-1.118;2023-02-14T16:57:31;6.03;;;5.53;;
70667;SDS011;58242;51.250;-1.118;2023-02-14T17:00:01;6.28;;;5.75;;
70667;SDS011;58242;51.250;-1.118;2023-02-14T17:02:30;5.65;;;5.10;;
70667;SDS011;58242;51.250;-1.118;2023-02-14T17:04:57;6.18;;;5.63;;
70667;SDS011;58242;51.250;-1.118;2023-02-14T17:07:22;6.63;;;5.93;;